sensor_id;sensor_type;location;lat;lon;timestamp;pressure;altitude;pressure_sealevel;temperature;humidity
48790;BME280;41718;51.980;5.734;2022-12-07T00:02:15;101512.63;;;2.43;100.00
48790;BME280;41718;51.980;5.734;2022-12-07T00:07:18;101510.59;;;2.23;100.00
48790;BME280;41718;51.980;5.734;2022-12-07T00:12:26;101508.41;;;2.29;100.00
48790;BME280;41718;51.980;5.734;2022-12-07T00:17:28;101510.88;;;2.27;100.00
48790;BME280;41718;51.980;5.734;2022-12-07T00:22:30;101519.44;;;2.00;100.00
48790;BME280;41718;51.980;5.734;2022-12-07T00:27:31;101509.03;;;1.97;100.00
48790;BME280;41718;51.980;5.734;2022-12-07T00:32:37;101500.69;;;1.99;100.00
48790;BME280;41718;51.980;5.734;2022-12-07T00:37:39;101487.59;;;2.08;100.00
48790;BME280;41718;51.980;5.734;2022-12-07T00:42:40;101487.59;;;1.93;100.00
48790;BME280;41718;51.980;5.734;2022-12-07T00:47:44;101490.44;;;1.84;100.00
48790;BME280;41718;51.980;5.734;2022-12-07T00:52:48;101487.31;;;1.89;100.00
48790;BME280;41718;51.980;5.734;2022-12-07T00:57:49;101478.13;;;1.92;100.00
48790;BME280;41718;51.980;5.734;2022-12-07T01:02:54;101485.38;;;1.99;100.00
48790;BME280;41718;51.980;5.734;2022-12-07T01:07:57;101472.28;;;2.08;100.00
48790;BME280;41718;51.980;5.734;2022-12-07T01:13:01;101477.03;;;2.02;100.00
48790;BME280;41718;51.980;5.734;2022-12-07T01:18:02;101478.69;;;2.01;100.00
48790;BME280;41718;51.980;5.734;2022-12-07T01:23:06;101485.34;;;1.84;100.00
48790;BME280;41718;51.980;5.734;2022-12-07T01:28:07;101493.19;;;1.88;100.00
48790;BME280;41718;51.980;5.734;2022-12-07T01:33:09;101486.50;;;1.90;100.00
48790;BME280;41718;51.980;5.734;2022-12-07T01:38:10;101481.53;;;2.06;100.00
48790;BME280;41718;51.980;5.734;2022-12-07T01:43:17;101478.19;;;2.07;100.00
48790;BME280;41718;51.980;5.734;2022-12-07T01:48:24;101478.25;;;1.94;100.00
48790;BME280;41718;51.980;5.734;2022-12-07T01:53:28;101476.63;;;1.81;100.00
48790;BME280;41718;51.980;5.734;2022-12-07T01:58:30;101474.03;;;1.94;100.00
48790;BME280;41718;51.980;5.734;2022-12-07T02:03:37;101473.81;;;1.76;100.00
48790;BME280;41718;51.980;5.734;2022-12-07T02:08:39;101478.84;;;1.90;100.00
48790;BME280;41718;51.980;5.734;2022-12-07T02:13:42;101469.75;;;1.80;100.00
48790;BME280;41718;51.980;5.734;2022-12-07T02:29:19;101474.06;;;1.81;100.00
48790;BME280;41718;51.980;5.734;2022-12-07T02:34:23;101476.03;;;1.85;100.00
48790;BME280;41718;51.980;5.734;2022-12-07T02:39:40;101479.88;;;1.78;100.00
48790;BME280;41718;51.980;5.734;2022-12-07T02:44:44;101481.25;;;1.73;100.00
48790;BME280;41718;51.980;5.734;2022-12-07T02:49:47;101477.13;;;1.75;100.00
48790;BME280;41718;51.980;5.734;2022-12-07T02:54:48;101474.56;;;1.75;100.00
48790;BME280;41718;51.980;5.734;2022-12-07T03:00:15;101481.09;;;1.70;100.00
48790;BME280;41718;51.980;5.734;2022-12-07T03:05:40;101477.91;;;1.74;100.00
48790;BME280;41718;51.980;5.734;2022-12-07T03:10:58;101477.13;;;1.75;100.00
48790;BME280;41718;51.980;5.734;2022-12-07T03:16:20;101472.03;;;1.75;100.00
48790;BME280;41718;51.980;5.734;2022-12-07T03:21:26;101478.72;;;1.73;100.00
48790;BME280;41718;51.980;5.734;2022-12-07T03:26:34;101472.03;;;1.75;100.00
48790;BME280;41718;51.980;5.734;2022-12-07T03:31:40;101473.63;;;1.73;100.00
48790;BME280;41718;51.980;5.734;2022-12-07T03:36:47;101463.84;;;1.66;100.00
48790;BME280;41718;51.980;5.734;2022-12-07T03:41:51;101462.09;;;1.80;100.00
48790;BME280;41718;51.980;5.734;2022-12-07T03:47:06;101454.44;;;1.80;100.00
48790;BME280;41718;51.980;5.734;2022-12-07T03:57:40;101452.97;;;1.83;100.00
48790;BME280;41718;51.980;5.734;2022-12-07T04:02:43;101450.94;;;1.78;100.00
48790;BME280;41718;51.980;5.734;2022-12-07T04:07:44;101445.91;;;1.65;100.00
48790;BME280;41718;51.980;5.734;2022-12-07T04:12:46;101443.88;;;1.74;100.00
48790;BME280;41718;51.980;5.734;2022-12-07T04:17:48;101434.78;;;1.64;100.00
48790;BME280;41718;51.980;5.734;2022-12-07T04:22:49;101443.44;;;1.66;100.00
48790;BME280;41718;51.980;5.734;2022-12-07T04:27:50;101450.59;;;1.58;100.00
48790;BME280;41718;51.980;5.734;2022-12-07T04:32:52;101447.53;;;1.64;100.00
48790;BME280;41718;51.980;5.734;2022-12-07T04:37:53;101453.88;;;1.56;100.00
48790;BME280;41718;51.980;5.734;2022-12-07T04:42:55;101448.47;;;1.65;100.00
48790;BME280;41718;51.980;5.734;2022-12-07T04:47:56;101445.06;;;1.79;100.00
48790;BME280;41718;51.980;5.734;2022-12-07T04:52:58;101439.72;;;1.89;100.00
48790;BME280;41718;51.980;5.734;2022-12-07T04:57:59;101446.00;;;1.81;100.00
48790;BME280;41718;51.980;5.734;2022-12-07T05:03:01;101436.59;;;1.80;100.00
48790;BME280;41718;51.980;5.734;2022-12-07T05:08:02;101435.66;;;1.78;100.00
48790;BME280;41718;51.980;5.734;2022-12-07T05:13:04;101436.31;;;1.75;100.00
48790;BME280;41718;51.980;5.734;2022-12-07T05:18:05;101424.00;;;1.68;100.00
48790;BME280;41718;51.980;5.734;2022-12-07T05:23:07;101429.47;;;1.74;100.00
48790;BME280;41718;51.980;5.734;2022-12-07T05:28:08;101432.09;;;1.76;100.00
48790;BME280;41718;51.980;5.734;2022-12-07T05:33:10;101432.44;;;1.67;100.00
48790;BME280;41718;51.980;5.734;2022-12-07T05:38:11;101433.03;;;1.63;100.00
48790;BME280;41718;51.980;5.734;2022-12-07T05:43:13;101435.06;;;1.54;100.00
48790;BME280;41718;51.980;5.734;2022-12-07T05:48:14;101428.88;;;1.50;100.00
48790;BME280;41718;51.980;5.734;2022-12-07T05:53:16;101425.88;;;1.43;100.00
48790;BME280;41718;51.980;5.734;2022-12-07T05:58:23;101419.63;;;1.38;100.00
48790;BME280;41718;51.980;5.734;2022-12-07T06:03:43;101423.13;;;1.40;100.00
48790;BME280;41718;51.980;5.734;2022-12-07T06:08:46;101428.22;;;1.40;100.00
48790;BME280;41718;51.980;5.734;2022-12-07T06:13:47;101428.31;;;1.41;100.00
48790;BME280;41718;51.980;5.734;2022-12-07T06:18:49;101422.72;;;1.47;100.00
48790;BME280;41718;51.980;5.734;2022-12-07T06:23:50;101426.63;;;1.55;100.00
48790;BME280;41718;51.980;5.734;2022-12-07T06:28:52;101434.50;;;1.45;100.00
48790;BME280;41718;51.980;5.734;2022-12-07T06:34:02;101428.56;;;1.59;100.00
48790;BME280;41718;51.980;5.734;2022-12-07T06:39:04;101434.44;;;1.58;100.00
48790;BME280;41718;51.980;5.734;2022-12-07T06:44:07;101430.50;;;1.63;100.00
48790;BME280;41718;51.980;5.734;2022-12-07T06:49:11;101433.16;;;1.65;100.00
48790;BME280;41718;51.980;5.734;2022-12-07T06:54:14;101436.38;;;1.62;100.00
48790;BME280;41718;51.980;5.734;2022-12-07T06:59:19;101439.44;;;1.56;100.00
48790;BME280;41718;51.980;5.734;2022-12-07T07:04:22;101441.53;;;1.49;100.00
48790;BME280;41718;51.980;5.734;2022-12-07T07:09:28;101439.78;;;1.48;100.00
48790;BME280;41718;51.980;5.734;2022-12-07T07:14:31;101436.84;;;1.42;100.00
48790;BME280;41718;51.980;5.734;2022-12-07T07:19:32;101443.94;;;1.32;100.00
48790;BME280;41718;51.980;5.734;2022-12-07T07:24:34;101446.66;;;1.36;100.00
48790;BME280;41718;51.980;5.734;2022-12-07T07:29:35;101446.16;;;1.41;100.00
48790;BME280;41718;51.980;5.734;2022-12-07T07:34:37;101449.28;;;1.50;100.00
48790;BME280;41718;51.980;5.734;2022-12-07T07:39:38;101447.53;;;1.49;100.00
48790;BME280;41718;51.980;5.734;2022-12-07T07:44:40;101445.91;;;1.37;100.00
48790;BME280;41718;51.980;5.734;2022-12-07T07:49:41;101456.47;;;1.29;100.00
48790;BME280;41718;51.980;5.734;2022-12-07T07:54:48;101453.75;;;1.26;100.00
48790;BME280;41718;51.980;5.734;2022-12-07T07:59:49;101455.50;;;1.27;100.00
48790;BME280;41718;51.980;5.734;2022-12-07T08:04:51;101450.28;;;1.39;100.00
48790;BME280;41718;51.980;5.734;2022-12-07T08:09:53;101455.59;;;1.42;100.00
48790;BME280;41718;51.980;5.734;2022-12-07T08:14:54;101463.59;;;1.48;100.00
48790;BME280;41718;51.980;5.734;2022-12-07T08:19:56;101464.19;;;1.44;100.00
48790;BME280;41718;51.980;5.734;2022-12-07T08:24:57;101472.78;;;1.59;100.00
48790;BME280;41718;51.980;5.734;2022-12-07T08:29:59;101476.22;;;1.60;100.00
48790;BME280;41718;51.980;5.734;2022-12-07T08:35:01;101466.41;;;1.81;100.00
48790;BME280;41718;51.980;5.734;2022-12-07T08:40:04;101467.84;;;1.91;100.00
48790;BME280;41718;51.980;5.734;2022-12-07T08:45:09;101468.41;;;2.00;100.00
48790;BME280;41718;51.980;5.734;2022-12-07T08:50:12;101461.34;;;1.96;100.00
48790;BME280;41718;51.980;5.734;2022-12-07T08:55:13;101467.06;;;1.92;100.00
48790;BME280;41718;51.980;5.734;2022-12-07T09:00:15;101466.31;;;2.07;100.00
48790;BME280;41718;51.980;5.734;2022-12-07T09:05:18;101470.44;;;2.20;100.00
48790;BME280;41718;51.980;5.734;2022-12-07T09:10:19;101471.25;;;2.19;100.00
48790;BME280;41718;51.980;5.734;2022-12-07T09:15:21;101467.22;;;2.23;100.00
48790;BME280;41718;51.980;5.734;2022-12-07T09:20:22;101475.03;;;2.41;100.00
48790;BME280;41718;51.980;5.734;2022-12-07T09:25:28;101471.69;;;2.42;100.00
48790;BME280;41718;51.980;5.734;2022-12-07T09:30:30;101466.31;;;2.37;100.00
48790;BME280;41718;51.980;5.734;2022-12-07T09:35:31;101472.50;;;2.41;100.00
48790;BME280;41718;51.980;5.734;2022-12-07T09:40:33;101477.59;;;2.41;100.00
48790;BME280;41718;51.980;5.734;2022-12-07T09:45:36;101479.09;;;2.52;100.00
48790;BME280;41718;51.980;5.734;2022-12-07T09:50:39;101473.72;;;2.62;100.00
48790;BME280;41718;51.980;5.734;2022-12-07T09:55:41;101470.78;;;2.71;100.00
48790;BME280;41718;51.980;5.734;2022-12-07T10:00:44;101465.41;;;2.81;100.00
48790;BME280;41718;51.980;5.734;2022-12-07T10:05:48;101469.31;;;3.05;100.00
48790;BME280;41718;51.980;5.734;2022-12-07T10:10:55;101460.50;;;3.15;100.00
48790;BME280;41718;51.980;5.734;2022-12-07T10:15:57;101453.88;;;3.18;100.00
48790;BME280;41718;51.980;5.734;2022-12-07T10:21:18;101442.34;;;3.10;100.00
48790;BME280;41718;51.980;5.734;2022-12-07T10:26:35;101448.44;;;3.12;100.00
48790;BME280;41718;51.980;5.734;2022-12-07T10:31:39;101447.50;;;3.27;100.00
48790;BME280;41718;51.980;5.734;2022-12-07T10:36:40;101426.75;;;3.37;100.00
48790;BME280;41718;51.980;5.734;2022-12-07T10:41:59;101423.47;;;3.56;100.00
48790;BME280;41718;51.980;5.734;2022-12-07T10:47:32;101413.84;;;3.84;100.00
48790;BME280;41718;51.980;5.734;2022-12-07T10:57:52;101413.53;;;3.78;100.00
48790;BME280;41718;51.980;5.734;2022-12-07T11:19:53;101417.94;;;4.85;100.00
48790;BME280;41718;51.980;5.734;2022-12-07T11:25:32;101422.25;;;5.99;100.00
48790;BME280;41718;51.980;5.734;2022-12-07T11:30:44;101408.41;;;6.58;100.00
48790;BME280;41718;51.980;5.734;2022-12-07T11:41:10;101436.31;;;4.94;100.00
48790;BME280;41718;51.980;5.734;2022-12-07T11:46:16;101449.06;;;5.86;100.00
48790;BME280;41718;51.980;5.734;2022-12-07T11:51:23;101438.94;;;5.50;100.00
48790;BME280;41718;51.980;5.734;2022-12-07T11:56:35;101439.09;;;5.36;100.00
48790;BME280;41718;51.980;5.734;2022-12-07T12:06:44;101449.41;;;5.18;100.00
48790;BME280;41718;51.980;5.734;2022-12-07T12:12:29;101446.03;;;5.19;100.00
48790;BME280;41718;51.980;5.734;2022-12-07T12:23:20;101443.25;;;5.90;100.00
48790;BME280;41718;51.980;5.734;2022-12-07T12:28:40;101444.06;;;5.32;100.00
48790;BME280;41718;51.980;5.734;2022-12-07T12:33:54;101433.91;;;5.53;100.00
48790;BME280;41718;51.980;5.734;2022-12-07T13:09:49;101398.78;;;5.14;100.00
48790;BME280;41718;51.980;5.734;2022-12-07T13:14:58;101393.16;;;5.03;100.00
48790;BME280;41718;51.980;5.734;2022-12-07T13:20:05;101390.25;;;5.15;100.00
48790;BME280;41718;51.980;5.734;2022-12-07T13:30:21;101382.78;;;5.39;100.00
48790;BME280;41718;51.980;5.734;2022-12-07T13:35:41;101373.69;;;5.45;100.00
48790;BME280;41718;51.980;5.734;2022-12-07T13:40:59;101369.03;;;5.37;100.00
48790;BME280;41718;51.980;5.734;2022-12-07T13:46:10;101364.78;;;5.37;100.00
48790;BME280;41718;51.980;5.734;2022-12-07T13:51:24;101362.22;;;5.18;100.00
48790;BME280;41718;51.980;5.734;2022-12-07T13:56:32;101352.28;;;5.06;100.00
48790;BME280;41718;51.980;5.734;2022-12-07T14:01:35;101350.31;;;5.00;100.00
48790;BME280;41718;51.980;5.734;2022-12-07T14:06:47;101347.19;;;4.88;100.00
48790;BME280;41718;51.980;5.734;2022-12-07T14:11:50;101349.97;;;4.75;100.00
48790;BME280;41718;51.980;5.734;2022-12-07T14:22:38;101344.94;;;4.59;100.00
48790;BME280;41718;51.980;5.734;2022-12-07T14:27:51;101334.06;;;4.45;100.00
48790;BME280;41718;51.980;5.734;2022-12-07T14:32:57;101326.03;;;4.37;100.00
48790;BME280;41718;51.980;5.734;2022-12-07T14:37:59;101326.75;;;4.35;100.00
48790;BME280;41718;51.980;5.734;2022-12-07T14:43:09;101328.13;;;4.28;100.00
48790;BME280;41718;51.980;5.734;2022-12-07T14:48:14;101326.09;;;4.21;100.00
48790;BME280;41718;51.980;5.734;2022-12-07T14:53:41;101323.09;;;4.12;100.00
48790;BME280;41718;51.980;5.734;2022-12-07T14:58:44;101315.34;;;4.10;100.00
48790;BME280;41718;51.980;5.734;2022-12-07T15:03:49;101308.59;;;4.12;100.00
48790;BME280;41718;51.980;5.734;2022-12-07T15:08:51;101315.41;;;4.12;100.00
48790;BME280;41718;51.980;5.734;2022-12-07T15:13:52;101304.22;;;4.10;100.00
48790;BME280;41718;51.980;5.734;2022-12-07T15:19:12;101309.13;;;4.05;100.00
48790;BME280;41718;51.980;5.734;2022-12-07T15:24:30;101305.16;;;3.94;100.00
48790;BME280;41718;51.980;5.734;2022-12-07T15:29:34;101296.31;;;3.87;100.00
48790;BME280;41718;51.980;5.734;2022-12-07T15:34:36;101288.22;;;3.80;100.00
48790;BME280;41718;51.980;5.734;2022-12-07T15:39:44;101285.53;;;3.77;100.00
48790;BME280;41718;51.980;5.734;2022-12-07T15:44:45;101283.56;;;3.71;100.00
48790;BME280;41718;51.980;5.734;2022-12-07T15:50:09;101275.59;;;3.65;100.00
48790;BME280;41718;51.980;5.734;2022-12-07T15:55:11;101273.66;;;3.61;100.00
48790;BME280;41718;51.980;5.734;2022-12-07T16:00:19;101281.34;;;3.61;100.00
48790;BME280;41718;51.980;5.734;2022-12-07T16:05:22;101271.91;;;3.60;100.00
48790;BME280;41718;51.980;5.734;2022-12-07T16:10:25;101273.34;;;3.55;100.00
48790;BME280;41718;51.980;5.734;2022-12-07T16:15:26;101263.47;;;3.44;100.00
48790;BME280;41718;51.980;5.734;2022-12-07T16:20:28;101269.31;;;3.42;100.00
48790;BME280;41718;51.980;5.734;2022-12-07T16:25:29;101259.72;;;3.38;100.00
48790;BME280;41718;51.980;5.734;2022-12-07T16:30:34;101256.06;;;3.33;100.00
48790;BME280;41718;51.980;5.734;2022-12-07T16:35:39;101258.38;;;3.28;100.00
48790;BME280;41718;51.980;5.734;2022-12-07T16:40:42;101253.63;;;3.18;100.00
48790;BME280;41718;51.980;5.734;2022-12-07T16:45:47;101251.78;;;3.15;100.00
48790;BME280;41718;51.980;5.734;2022-12-07T16:50:49;101243.84;;;3.11;100.00
48790;BME280;41718;51.980;5.734;2022-12-07T16:55:51;101236.06;;;3.08;100.00
48790;BME280;41718;51.980;5.734;2022-12-07T17:00:54;101228.16;;;3.03;100.00
48790;BME280;41718;51.980;5.734;2022-12-07T17:05:56;101222.78;;;2.99;100.00
48790;BME280;41718;51.980;5.734;2022-12-07T17:11:00;101215.88;;;2.96;100.00
48790;BME280;41718;51.980;5.734;2022-12-07T17:16:04;101224.22;;;2.93;100.00
48790;BME280;41718;51.980;5.734;2022-12-07T17:21:08;101221.69;;;2.93;100.00
48790;BME280;41718;51.980;5.734;2022-12-07T17:26:19;101217.22;;;2.89;100.00
48790;BME280;41718;51.980;5.734;2022-12-07T17:31:22;101208.84;;;2.92;100.00
48790;BME280;41718;51.980;5.734;2022-12-07T17:36:26;101199.25;;;2.88;100.00
48790;BME280;41718;51.980;5.734;2022-12-07T17:41:29;101199.00;;;2.83;100.00
48790;BME280;41718;51.980;5.734;2022-12-07T17:46:52;101195.50;;;2.81;100.00
48790;BME280;41718;51.980;5.734;2022-12-07T17:51:59;101197.00;;;2.78;100.00
48790;BME280;41718;51.980;5.734;2022-12-07T17:57:22;101184.97;;;2.75;100.00
48790;BME280;41718;51.980;5.734;2022-12-07T18:02:25;101181.53;;;2.75;100.00
48790;BME280;41718;51.980;5.734;2022-12-07T18:07:31;101180.75;;;2.76;100.00
48790;BME280;41718;51.980;5.734;2022-12-07T18:12:33;101172.94;;;2.73;100.00
48790;BME280;41718;51.980;5.734;2022-12-07T18:17:34;101171.25;;;2.73;100.00
48790;BME280;41718;51.980;5.734;2022-12-07T18:22:37;101185.72;;;2.73;100.00
48790;BME280;41718;51.980;5.734;2022-12-07T18:27:41;101169.66;;;2.75;100.00
48790;BME280;41718;51.980;5.734;2022-12-07T18:32:43;101156.06;;;2.76;100.00
48790;BME280;41718;51.980;5.734;2022-12-07T18:37:46;101144.03;;;2.74;100.00
48790;BME280;41718;51.980;5.734;2022-12-07T18:42:48;101152.25;;;2.68;100.00
48790;BME280;41718;51.980;5.734;2022-12-07T18:47:49;101142.91;;;2.69;100.00
48790;BME280;41718;51.980;5.734;2022-12-07T18:52:51;101140.13;;;2.64;100.00
48790;BME280;41718;51.980;5.734;2022-12-07T18:57:53;101141.00;;;2.64;100.00
48790;BME280;41718;51.980;5.734;2022-12-07T19:02:56;101143.41;;;2.61;100.00
48790;BME280;41718;51.980;5.734;2022-12-07T19:07:57;101146.03;;;2.63;100.00
48790;BME280;41718;51.980;5.734;2022-12-07T19:13:02;101146.03;;;2.63;100.00
48790;BME280;41718;51.980;5.734;2022-12-07T19:18:04;101146.97;;;2.65;100.00
48790;BME280;41718;51.980;5.734;2022-12-07T19:23:07;101140.84;;;2.61;100.00
48790;BME280;41718;51.980;5.734;2022-12-07T19:28:09;101145.78;;;2.58;100.00
48790;BME280;41718;51.980;5.734;2022-12-07T19:33:12;101142.38;;;2.58;100.00
48790;BME280;41718;51.980;5.734;2022-12-07T19:38:14;101148.09;;;2.54;100.00
48790;BME280;41718;51.980;5.734;2022-12-07T19:43:23;101140.63;;;2.57;100.00
48790;BME280;41718;51.980;5.734;2022-12-07T19:48:28;101133.09;;;2.60;100.00
48790;BME280;41718;51.980;5.734;2022-12-07T19:53:33;101121.19;;;2.60;100.00
48790;BME280;41718;51.980;5.734;2022-12-07T19:58:34;101124.72;;;2.62;100.00
48790;BME280;41718;51.980;5.734;2022-12-07T20:03:40;101119.56;;;2.61;100.00
48790;BME280;41718;51.980;5.734;2022-12-07T20:08:42;101109.25;;;2.59;100.00
48790;BME280;41718;51.980;5.734;2022-12-07T20:13:45;101105.88;;;2.60;100.00
48790;BME280;41718;51.980;5.734;2022-12-07T20:18:47;101095.53;;;2.57;100.00
48790;BME280;41718;51.980;5.734;2022-12-07T20:24:05;101083.41;;;2.53;100.00
48790;BME280;41718;51.980;5.734;2022-12-07T20:29:11;101075.97;;;2.58;100.00
48790;BME280;41718;51.980;5.734;2022-12-07T20:34:19;101046.72;;;2.51;100.00
48790;BME280;41718;51.980;5.734;2022-12-07T20:39:23;101047.59;;;2.52;100.00
48790;BME280;41718;51.980;5.734;2022-12-07T20:44:24;101040.63;;;2.49;100.00
48790;BME280;41718;51.980;5.734;2022-12-07T20:49:27;101044.72;;;2.46;100.00
48790;BME280;41718;51.980;5.734;2022-12-07T20:54:32;101039.63;;;2.46;100.00
48790;BME280;41718;51.980;5.734;2022-12-07T20:59:33;101037.00;;;2.44;100.00
48790;BME280;41718;51.980;5.734;2022-12-07T21:04:41;101034.75;;;2.50;100.00
48790;BME280;41718;51.980;5.734;2022-12-07T21:09:47;101028.44;;;2.44;100.00
48790;BME280;41718;51.980;5.734;2022-12-07T21:14:50;101017.44;;;2.45;100.00
48790;BME280;41718;51.980;5.734;2022-12-07T21:19:54;101029.22;;;2.43;100.00
48790;BME280;41718;51.980;5.734;2022-12-07T21:24:58;101022.31;;;2.40;100.00
48790;BME280;41718;51.980;5.734;2022-12-07T21:30:04;101012.97;;;2.41;100.00
48790;BME280;41718;51.980;5.734;2022-12-07T21:35:06;101004.59;;;2.43;100.00
48790;BME280;41718;51.980;5.734;2022-12-07T21:40:09;101000.50;;;2.47;100.00
48790;BME280;41718;51.980;5.734;2022-12-07T21:45:17;100998.78;;;2.46;100.00
48790;BME280;41718;51.980;5.734;2022-12-07T21:50:19;100998.03;;;2.48;100.00
48790;BME280;41718;51.980;5.734;2022-12-07T21:55:21;100988.63;;;2.47;100.00
48790;BME280;41718;51.980;5.734;2022-12-07T22:00:23;100979.34;;;2.49;100.00
48790;BME280;41718;51.980;5.734;2022-12-07T22:05:25;100979.16;;;2.45;100.00
48790;BME280;41718;51.980;5.734;2022-12-07T22:10:27;100973.81;;;2.40;100.00
48790;BME280;41718;51.980;5.734;2022-12-07T22:15:29;100988.31;;;2.41;100.00
48790;BME280;41718;51.980;5.734;2022-12-07T22:20:30;100971.31;;;2.42;100.00
48790;BME280;41718;51.980;5.734;2022-12-07T22:25:32;100977.81;;;2.35;100.00
48790;BME280;41718;51.980;5.734;2022-12-07T22:30:35;100972.78;;;2.36;100.00
48790;BME280;41718;51.980;5.734;2022-12-07T22:35:41;100964.25;;;2.36;100.00
48790;BME280;41718;51.980;5.734;2022-12-07T22:40:43;100959.44;;;2.42;100.00
48790;BME280;41718;51.980;5.734;2022-12-07T22:45:58;100948.34;;;2.42;100.00
48790;BME280;41718;51.980;5.734;2022-12-07T22:51:00;100942.31;;;2.39;100.00
48790;BME280;41718;51.980;5.734;2022-12-07T22:56:02;100935.66;;;2.43;100.00
48790;BME280;41718;51.980;5.734;2022-12-07T23:01:07;100931.06;;;2.36;100.00
48790;BME280;41718;51.980;5.734;2022-12-07T23:06:23;100926.53;;;2.30;100.00
48790;BME280;41718;51.980;5.734;2022-12-07T23:11:28;100924.91;;;2.32;100.00
48790;BME280;41718;51.980;5.734;2022-12-07T23:16:49;100913.94;;;2.33;100.00
48790;BME280;41718;51.980;5.734;2022-12-07T23:21:50;100917.25;;;2.32;100.00
48790;BME280;41718;51.980;5.734;2022-12-07T23:26:53;100902.56;;;2.45;100.00
48790;BME280;41718;51.980;5.734;2022-12-07T23:31:57;100891.38;;;2.43;100.00
48790;BME280;41718;51.980;5.734;2022-12-07T23:37:01;100901.69;;;2.44;100.00
48790;BME280;41718;51.980;5.734;2022-12-07T23:42:02;100891.53;;;2.46;100.00
48790;BME280;41718;51.980;5.734;2022-12-07T23:47:04;100893.50;;;2.51;100.00
48790;BME280;41718;51.980;5.734;2022-12-07T23:52:05;100874.09;;;2.55;100.00
48790;BME280;41718;51.980;5.734;2022-12-07T23:57:07;100865.66;;;2.56;100.00
